Time;durP1;ratioP1;P1;durP2;ratioP2;P2;SDS_P1;SDS_P2;PMS_P1;PMS_P2;Temp;Humidity;BMP_temperature;BMP_pressure;BME280_temperature;BME280_humidity;BME280_pressure;Samples;Min_cycle;Max_cycle;Signal;HPM_P1;HPM_P2
2022/05/29 00:01:48;;;;;;;1.27;1.17;;;;;9.00;101118.00;;;;5022890;28;20308;-68
2022/05/29 00:04:34;;;;;;;4.33;1.40;;;;;9.00;101108.00;;;;5024242;28;20601;-68
2022/05/29 00:07:20;;;;;;;1.27;1.13;;;;;8.90;101109.00;;;;5018652;28;20802;-68
2022/05/29 00:10:11;;;;;;;4.13;1.37;;;;;8.90;101112.00;;;;5002142;28;20230;-70
2022/05/29 00:12:57;;;;;;;1.57;1.47;;;;;9.00;101111.00;;;;5004400;28;20695;-70
2022/05/29 00:15:43;;;;;;;3.37;1.40;;;;;8.90;101112.00;;;;4999032;28;20238;-69
2022/05/29 00:18:30;;;;;;;2.00;1.43;;;;;8.90;101103.00;;;;4997542;28;20602;-70
2022/05/29 00:21:16;;;;;;;5.10;1.33;;;;;8.90;101108.00;;;;5010459;28;20377;-69
2022/05/29 00:24:04;;;;;;;3.40;1.17;;;;;8.80;101108.00;;;;5012792;28;20234;-70
2022/05/29 00:26:52;;;;;;;3.10;1.20;;;;;8.80;101099.00;;;;4997218;28;20240;-68
2022/05/29 00:29:38;;;;;;;1.73;1.27;;;;;8.80;101096.00;;;;5017877;28;20233;-70
2022/05/29 00:32:24;;;;;;;2.33;1.23;;;;;8.60;101086.00;;;;5009773;28;20229;-70
2022/05/29 00:35:10;;;;;;;1.70;1.43;;;;;8.50;101087.00;;;;5012812;28;20239;-69
2022/05/29 00:37:56;;;;;;;1.37;1.27;;;;;8.60;101088.00;;;;5026144;28;20249;-70
2022/05/29 00:40:49;;;;;;;3.83;1.27;;;;;8.60;101079.00;;;;5023550;28;20252;-70
2022/05/29 00:43:37;;;;;;;1.93;1.30;;;;;8.50;101081.00;;;;5026506;28;20289;-69
2022/05/29 00:46:23;;;;;;;3.77;1.17;;;;;8.50;101078.00;;;;5023743;28;20225;-69
2022/05/29 00:49:10;;;;;;;1.50;1.30;;;;;8.50;101070.00;;;;5026257;28;20229;-69
2022/05/29 00:52:00;;;;;;;2.10;1.50;;;;;8.40;101072.00;;;;5022099;28;20744;-69
2022/05/29 00:54:53;;;;;;;1.57;1.37;;;;;8.40;101071.00;;;;5020373;28;20968;-69
2022/05/29 00:57:45;;;;;;;1.70;1.20;;;;;8.40;101078.00;;;;5021241;28;20237;-69
2022/05/29 01:00:34;;;;;;;2.40;1.37;;;;;8.30;101064.00;;;;5022350;28;20229;-68
2022/05/29 01:03:21;;;;;;;1.27;1.17;;;;;8.30;101078.00;;;;5026161;28;20221;-70
2022/05/29 01:06:07;;;;;;;3.47;1.50;;;;;8.30;101075.00;;;;5018394;28;20245;-69
2022/05/29 01:08:54;;;;;;;2.33;1.20;;;;;8.30;101070.00;;;;5018292;28;20231;-69
2022/05/29 01:11:57;;;;;;;4.90;1.20;;;;;8.20;101072.00;;;;5024816;28;20380;-69
2022/05/29 01:14:51;;;;;;;1.73;1.30;;;;;8.40;101070.00;;;;5025142;28;20335;-70
2022/05/29 01:17:48;;;;;;;4.30;1.60;;;;;8.30;101064.00;;;;5022733;28;20228;-69
2022/05/29 01:20:44;;;;;;;2.03;1.23;;;;;8.30;101071.00;;;;5009958;28;20229;-70
2022/05/29 01:23:48;;;;;;;2.17;1.30;;;;;8.30;101056.00;;;;4997202;28;20262;-68
2022/05/29 01:26:58;;;;;;;1.17;1.10;;;;;8.30;101054.00;;;;4995880;28;20950;-70
2022/05/29 01:29:54;;;;;;;1.27;1.17;;;;;8.30;101060.00;;;;5010099;28;20293;-70
2022/05/29 01:32:51;;;;;;;2.67;1.53;;;;;8.20;101041.00;;;;5013171;28;20241;-69
2022/05/29 01:35:45;;;;;;;1.63;1.13;;;;;8.20;101053.00;;;;5009285;28;20258;-69
2022/05/29 01:38:38;;;;;;;1.80;1.30;;;;;8.10;101041.00;;;;5024062;28;20292;-70
2022/05/29 01:41:33;;;;;;;2.30;1.33;;;;;8.10;101048.00;;;;5018809;28;20221;-69
2022/05/29 01:44:25;;;;;;;2.30;1.50;;;;;8.10;101044.00;;;;5021799;28;20225;-69
2022/05/29 01:47:22;;;;;;;1.40;1.30;;;;;8.00;101036.00;;;;5023068;28;20229;-70
2022/05/29 01:50:14;;;;;;;4.97;1.33;;;;;7.90;101032.00;;;;5004590;28;20232;-69
2022/05/29 01:53:06;;;;;;;4.10;1.60;;;;;8.00;101039.00;;;;5021790;28;20229;-69
2022/05/29 01:55:58;;;;;;;2.03;1.53;;;;;7.90;101023.00;;;;5020007;28;20388;-69
2022/05/29 01:58:51;;;;;;;3.93;1.30;;;;;7.90;101028.00;;;;5023535;28;20299;-69
2022/05/29 02:01:44;;;;;;;2.00;1.40;;;;;7.90;101028.00;;;;5020612;28;20233;-69
2022/05/29 02:04:38;;;;;;;2.47;1.63;;;;;7.90;101031.00;;;;5021805;28;20237;-69
2022/05/29 02:10:38;;;;;;;1.80;1.40;;;;;7.80;101020.00;;;;5017865;28;20248;-69
2022/05/29 02:13:29;;;;;;;2.07;1.40;;;;;7.80;101021.00;;;;5018885;28;20222;-69
2022/05/29 02:16:17;;;;;;;3.70;1.50;;;;;7.70;101023.00;;;;5018597;28;20344;-69
2022/05/29 02:19:10;;;;;;;2.00;1.30;;;;;7.80;101020.00;;;;5018535;28;20233;-70
2022/05/29 02:22:01;;;;;;;2.73;1.33;;;;;7.90;101014.00;;;;5013860;28;20222;-69
2022/05/29 02:24:53;;;;;;;2.67;1.83;;;;;7.70;101013.00;;;;5023700;28;20343;-68
2022/05/29 02:27:46;;;;;;;6.87;1.53;;;;;7.60;101011.00;;;;5023369;28;20237;-69
2022/05/29 02:30:42;;;;;;;2.53;1.90;;;;;7.70;101014.00;;;;5019742;28;20358;-69
2022/05/29 02:33:35;;;;;;;4.43;1.60;;;;;7.60;101013.00;;;;5019379;28;20225;-69
2022/05/29 02:36:29;;;;;;;1.67;1.57;;;;;7.60;100964.00;;;;5018388;28;20237;-69
2022/05/29 02:39:31;;;;;;;2.83;1.90;;;;;7.70;101010.00;;;;5014859;28;20250;-69
2022/05/29 02:42:26;;;;;;;1.30;1.20;;;;;7.60;100996.00;;;;5018934;28;20229;-69
2022/05/29 02:45:20;;;;;;;3.73;1.70;;;;;7.70;101013.00;;;;5018147;28;20225;-67
2022/05/29 02:48:13;;;;;;;3.20;1.53;;;;;7.60;100992.00;;;;5005501;28;20245;-70
2022/05/29 02:51:04;;;;;;;1.93;1.40;;;;;7.70;100996.00;;;;5000013;28;20246;-70
2022/05/29 02:53:51;;;;;;;3.43;1.50;;;;;7.80;100994.00;;;;5003698;28;20233;-69
2022/05/29 02:56:39;;;;;;;2.63;1.70;;;;;7.80;101000.00;;;;5022087;28;20283;-70
2022/05/29 02:59:28;;;;;;;6.97;2.03;;;;;7.80;100997.00;;;;5017031;28;20253;-69
2022/05/29 03:02:24;;;;;;;2.53;1.70;;;;;7.80;100999.00;;;;5017039;28;20232;-68
2022/05/29 03:05:17;;;;;;;1.87;1.47;;;;;7.70;100989.00;;;;5022378;28;20364;-70
2022/05/29 03:08:19;;;;;;;2.43;1.70;;;;;7.60;100990.00;;;;5022184;28;20224;-70
2022/05/29 03:11:10;;;;;;;1.60;1.40;;;;;7.60;100974.00;;;;5005964;28;20233;-69
2022/05/29 03:14:05;;;;;;;2.00;1.70;;;;;7.60;100974.00;;;;4994872;28;20346;-70
2022/05/29 03:17:06;;;;;;;1.93;1.50;;;;;7.60;100967.00;;;;5018326;28;20975;-69
2022/05/29 03:20:03;;;;;;;1.87;1.37;;;;;7.70;100978.00;;;;5017301;28;20606;-69
2022/05/29 03:22:57;;;;;;;3.93;1.70;;;;;7.70;100977.00;;;;5001979;28;20623;-68
2022/05/29 03:25:48;;;;;;;2.97;1.80;;;;;7.70;100988.00;;;;5011222;28;20297;-69
2022/05/29 03:28:40;;;;;;;5.53;2.20;;;;;7.70;100975.00;;;;5018694;28;20734;-70
2022/05/29 03:31:30;;;;;;;4.70;1.70;;;;;7.60;100985.00;;;;5017367;28;20237;-70
2022/05/29 03:34:17;;;;;;;3.77;2.00;;;;;7.70;100981.00;;;;4998111;28;20229;-70
2022/05/29 03:37:06;;;;;;;3.80;1.97;;;;;7.70;100977.00;;;;5003570;28;20246;-70
2022/05/29 03:39:52;;;;;;;2.80;1.70;;;;;7.70;100966.00;;;;5019946;28;20380;-70
2022/05/29 03:42:38;;;;;;;2.60;1.63;;;;;7.80;100971.00;;;;4999602;28;20229;-70
2022/05/29 03:45:25;;;;;;;3.00;1.63;;;;;7.80;100968.00;;;;4999713;28;20225;-70
2022/05/29 03:48:13;;;;;;;3.80;1.87;;;;;8.00;100970.00;;;;5004121;28;20304;-71
2022/05/29 03:51:04;;;;;;;2.50;2.07;;;;;8.00;100958.00;;;;5020742;28;20237;-71
2022/05/29 03:53:50;;;;;;;1.60;1.50;;;;;8.10;100969.00;;;;5015507;28;20226;-70
2022/05/29 03:56:37;;;;;;;3.73;1.60;;;;;8.20;100963.00;;;;5020683;28;20241;-70
2022/05/29 03:59:23;;;;;;;2.77;1.60;;;;;8.30;100957.00;;;;5013446;28;20224;-70
2022/05/29 04:02:09;;;;;;;4.60;1.80;;;;;8.40;100954.00;;;;5024391;28;20292;-70
2022/05/29 04:04:57;;;;;;;5.90;2.23;;;;;8.50;100960.00;;;;5026313;28;20319;-70
2022/05/29 04:13:51;;;;;;;2.67;2.00;;;;;8.80;100945.00;;;;5015883;28;20371;-70
2022/05/29 04:16:37;;;;;;;3.37;1.73;;;;;8.70;100962.00;;;;5023815;28;20240;-70
2022/05/29 04:19:24;;;;;;;7.23;2.20;;;;;8.80;100953.00;;;;5002722;28;20225;-69
2022/05/29 04:22:15;;;;;;;3.20;2.10;;;;;8.80;100948.00;;;;5007246;28;20230;-70
2022/05/29 04:25:01;;;;;;;3.17;1.90;;;;;8.80;100951.00;;;;5007265;28;20238;-70
2022/05/29 04:27:47;;;;;;;3.73;2.03;;;;;9.00;100950.00;;;;5022679;28;20241;-70
2022/05/29 04:30:34;;;;;;;3.00;2.00;;;;;9.00;100953.00;;;;5025181;28;20715;-69
2022/05/29 04:33:22;;;;;;;5.70;3.40;;;;;9.10;100948.00;;;;5019453;28;20774;-70
2022/05/29 04:36:08;;;;;;;4.30;2.30;;;;;9.30;100952.00;;;;5019923;28;20285;-69
2022/05/29 04:38:57;;;;;;;5.27;2.00;;;;;9.30;100950.00;;;;5024892;28;20229;-69
2022/05/29 04:41:43;;;;;;;3.77;2.77;;;;;9.40;100940.00;;;;5027041;28;20233;-69
2022/05/29 04:44:30;;;;;;;3.40;2.50;;;;;9.50;100951.00;;;;5025126;28;20216;-70
2022/05/29 04:47:16;;;;;;;5.30;2.23;;;;;9.50;100948.00;;;;5021217;28;20226;-69
2022/05/29 04:50:03;;;;;;;2.93;2.40;;;;;9.60;100942.00;;;;5025398;28;20233;-71
2022/05/29 04:52:50;;;;;;;4.67;2.73;;;;;9.60;100940.00;;;;5017566;28;20281;-69
2022/05/29 04:55:39;;;;;;;6.43;2.40;;;;;9.70;100944.00;;;;5020804;28;20377;-69
2022/05/29 04:58:27;;;;;;;2.67;2.00;;;;;9.70;100945.00;;;;5020506;28;20234;-71
2022/05/29 05:01:13;;;;;;;6.20;2.43;;;;;9.80;100942.00;;;;5026699;28;20230;-71
2022/05/29 05:04:00;;;;;;;3.40;2.53;;;;;10.00;100935.00;;;;5006748;28;20355;-69
2022/05/29 05:06:47;;;;;;;4.90;2.50;;;;;10.00;100941.00;;;;5007071;28;20699;-69
2022/05/29 05:09:33;;;;;;;4.73;2.30;;;;;10.10;100935.00;;;;5000598;28;20596;-69
2022/05/29 05:12:20;;;;;;;4.30;2.30;;;;;10.20;100935.00;;;;5007359;28;20218;-69
2022/05/29 05:15:09;;;;;;;3.60;2.43;;;;;10.30;100932.00;;;;5024959;28;20232;-70
2022/05/29 05:17:55;;;;;;;4.27;2.70;;;;;10.30;100937.00;;;;5007029;28;20236;-70
2022/05/29 05:20:41;;;;;;;4.90;2.37;;;;;10.40;100934.00;;;;5001722;28;20229;-70
2022/05/29 05:23:28;;;;;;;6.87;2.43;;;;;10.60;100926.00;;;;5003336;28;20251;-70
2022/05/29 05:26:15;;;;;;;3.90;2.30;;;;;10.50;100930.00;;;;5026577;28;21932;-68
2022/05/29 05:29:03;;;;;;;5.27;2.53;;;;;10.50;100929.00;;;;5024072;28;20232;-70
2022/05/29 05:31:50;;;;;;;4.40;2.40;;;;;10.60;100942.00;;;;5027033;28;20228;-69
2022/05/29 05:34:36;;;;;;;3.20;2.50;;;;;10.50;100934.00;;;;5020564;28;20233;-69
2022/05/29 05:37:22;;;;;;;4.27;2.47;;;;;10.50;100933.00;;;;5023984;28;20231;-72
2022/05/29 05:40:11;;;;;;;6.53;2.53;;;;;10.60;100933.00;;;;5008243;28;20298;-69
2022/05/29 05:42:57;;;;;;;3.13;2.40;;;;;10.70;100931.00;;;;5008352;28;20244;-70
2022/05/29 05:45:45;;;;;;;4.80;2.47;;;;;10.80;100926.00;;;;5004730;28;20222;-70
2022/05/29 05:48:31;;;;;;;2.47;2.00;;;;;10.90;100925.00;;;;5002127;28;20235;-69
2022/05/29 05:51:17;;;;;;;4.53;1.90;;;;;11.00;100928.00;;;;5003925;28;20896;-69
2022/05/29 05:54:05;;;;;;;3.63;2.40;;;;;11.10;100924.00;;;;5019727;28;20271;-70
2022/05/29 05:56:51;;;;;;;2.77;2.10;;;;;11.20;100916.00;;;;5023485;28;20312;-69
2022/05/29 05:59:39;;;;;;;3.27;2.20;;;;;11.20;100919.00;;;;5022555;28;20243;-70
2022/05/29 06:02:27;;;;;;;5.53;2.47;;;;;11.40;100922.00;;;;5018547;28;20232;-68
2022/05/29 06:05:16;;;;;;;4.87;2.20;;;;;11.60;100927.00;;;;5024519;28;20248;-70
2022/05/29 06:08:02;;;;;;;4.33;2.20;;;;;11.80;100923.00;;;;5024713;28;20239;-70
2022/05/29 06:10:49;;;;;;;4.40;2.27;;;;;11.70;100919.00;;;;5025571;28;20241;-70
2022/05/29 06:13:35;;;;;;;5.70;2.40;;;;;11.80;100924.00;;;;5023991;28;20602;-69
2022/05/29 06:16:22;;;;;;;4.30;2.30;;;;;11.80;100925.00;;;;5019879;28;20216;-70
2022/05/29 06:19:10;;;;;;;3.33;2.40;;;;;12.00;100924.00;;;;5024209;28;20237;-70
2022/05/29 06:21:56;;;;;;;6.43;2.33;;;;;12.10;100923.00;;;;5024880;28;20279;-70
2022/05/29 06:24:43;;;;;;;5.87;3.23;;;;;12.10;100927.00;;;;5024929;28;20234;-69
2022/05/29 06:27:37;;;;;;;5.13;2.53;;;;;12.20;100931.00;;;;5018913;28;20269;-70
2022/05/29 06:30:23;;;;;;;4.50;2.10;;;;;12.20;100932.00;;;;5022870;28;20230;-70
2022/05/29 06:33:09;;;;;;;6.00;2.50;;;;;12.20;100937.00;;;;5025515;28;20233;-70
2022/05/29 06:36:06;;;;;;;3.87;2.13;;;;;12.10;100934.00;;;;5022147;28;20233;-70
2022/05/29 06:38:54;;;;;;;4.17;2.33;;;;;12.00;100943.00;;;;5021889;28;20896;-69
2022/05/29 06:41:40;;;;;;;3.20;2.30;;;;;12.00;100934.00;;;;5019352;28;20237;-68
2022/05/29 06:44:27;;;;;;;5.13;2.10;;;;;12.20;100931.00;;;;5025505;28;20677;-68
2022/05/29 06:47:15;;;;;;;3.60;2.00;;;;;12.20;100931.00;;;;5024141;28;20651;-70
2022/05/29 06:50:02;;;;;;;5.83;2.43;;;;;12.30;100934.00;;;;5024999;28;20598;-69
2022/05/29 06:52:49;;;;;;;7.93;2.07;;;;;12.50;100934.00;;;;5019404;28;20381;-69
2022/05/29 06:55:36;;;;;;;3.73;2.40;;;;;12.70;100939.00;;;;5004998;28;20264;-68
2022/05/29 06:58:23;;;;;;;4.37;2.07;;;;;12.70;100912.00;;;;5022710;28;20241;-69
2022/05/29 07:07:37;;;;;;;2.37;1.73;;;;;12.50;100922.00;;;;5018027;28;20241;-70
2022/05/29 07:10:25;;;;;;;2.50;2.00;;;;;12.50;100923.00;;;;5023017;28;20225;-70
2022/05/29 07:13:12;;;;;;;3.83;2.27;;;;;12.40;100921.00;;;;5024470;28;20233;-71
2022/05/29 07:15:58;;;;;;;4.50;2.17;;;;;12.50;100924.00;;;;5023929;28;20283;-71
2022/05/29 07:18:45;;;;;;;2.87;2.00;;;;;12.60;100925.00;;;;5028040;28;20878;-70
2022/05/29 07:21:39;;;;;;;6.20;2.93;;;;;12.70;100925.00;;;;5020821;28;20237;-69
2022/05/29 07:24:26;;;;;;;6.43;3.27;;;;;12.70;100928.00;;;;5019458;28;20248;-68
2022/05/29 07:27:14;;;;;;;4.37;2.20;;;;;12.80;100917.00;;;;5013988;28;20766;-69
2022/05/29 07:30:01;;;;;;;4.77;2.30;;;;;12.90;100916.00;;;;5023962;28;20244;-69
2022/05/29 07:32:47;;;;;;;2.77;1.83;;;;;13.10;100919.00;;;;5017836;28;20228;-68
2022/05/29 07:35:34;;;;;;;6.37;2.10;;;;;13.20;100911.00;;;;5013513;28;20251;-68
2022/05/29 07:38:21;;;;;;;4.60;2.03;;;;;13.20;100913.00;;;;5024300;28;20228;-69
2022/05/29 07:44:08;;;;;;;5.03;2.47;;;;;13.70;100902.00;;;;5025010;28;20233;-67
2022/05/29 07:46:55;;;;;;;7.23;2.93;;;;;13.90;100901.00;;;;5023011;28;20228;-69
2022/05/29 07:49:42;;;;;;;4.00;2.10;;;;;13.80;100899.00;;;;5018540;28;20244;-67
2022/05/29 07:52:28;;;;;;;4.17;2.13;;;;;13.80;100895.00;;;;5027508;28;20804;-68
2022/05/29 07:55:14;;;;;;;2.20;1.83;;;;;13.50;100900.00;;;;5026341;28;20283;-68
2022/05/29 07:58:00;;;;;;;2.97;2.17;;;;;13.40;100893.00;;;;5023382;28;20245;-68
2022/05/29 08:00:49;;;;;;;3.57;1.90;;;;;13.40;100899.00;;;;5025324;28;20732;-67
2022/05/29 08:03:35;;;;;;;5.87;1.67;;;;;13.60;100895.00;;;;5018815;28;20229;-69
2022/05/29 08:06:22;;;;;;;4.83;1.90;;;;;13.70;100895.00;;;;5027540;28;20236;-68
2022/05/29 08:09:09;;;;;;;2.53;1.90;;;;;13.70;100887.00;;;;5020704;28;20724;-68
2022/05/29 08:11:55;;;;;;;2.00;1.80;;;;;13.90;100891.00;;;;5026828;28;20303;-68
2022/05/29 08:14:42;;;;;;;3.53;2.03;;;;;13.90;100887.00;;;;5016341;28;20798;-69
2022/05/29 08:17:30;;;;;;;2.80;1.60;;;;;13.90;100885.00;;;;5018001;28;20279;-70
2022/05/29 08:20:18;;;;;;;3.67;1.87;;;;;14.00;100887.00;;;;5014750;28;20229;-70
2022/05/29 08:23:04;;;;;;;4.20;1.53;;;;;13.80;100885.00;;;;5011511;28;20304;-69
2022/05/29 08:31:57;;;;;;;6.20;2.07;;;;;12.70;100915.00;;;;5020997;28;20240;-68
2022/05/29 08:34:45;;;;;;;3.07;1.83;;;;;12.50;100907.00;;;;5018348;28;20233;-70
2022/05/29 08:37:31;;;;;;;4.83;2.50;;;;;12.50;100918.00;;;;5020788;28;20356;-69
2022/05/29 08:40:18;;;;;;;4.37;2.50;;;;;12.60;100911.00;;;;5022993;28;20311;-71
2022/05/29 08:43:04;;;;;;;3.27;1.80;;;;;12.80;100906.00;;;;5023236;28;20241;-70
2022/05/29 08:45:51;;;;;;;6.47;1.60;;;;;12.60;100912.00;;;;5019224;28;20388;-69
2022/05/29 08:48:37;;;;;;;2.57;1.60;;;;;12.70;100903.00;;;;5016738;28;20776;-70
2022/05/29 08:51:40;;;;;;;3.70;1.63;;;;;12.90;100909.00;;;;5024097;28;20601;-70
2022/05/29 08:54:38;;;;;;;2.73;1.50;;;;;13.00;100903.00;;;;5020971;28;20787;-71
2022/05/29 08:57:44;;;;;;;2.70;1.80;;;;;13.20;100898.00;;;;5023344;28;20230;-71
2022/05/29 09:00:43;;;;;;;2.47;1.70;;;;;13.50;100888.00;;;;5014744;28;20276;-68
2022/05/29 09:03:45;;;;;;;7.93;2.40;;;;;14.00;100889.00;;;;5023992;28;20279;-69
2022/05/29 09:06:36;;;;;;;5.37;2.27;;;;;14.40;100874.00;;;;5024139;28;20228;-69
2022/05/29 09:09:28;;;;;;;5.03;1.70;;;;;15.00;100872.00;;;;5026210;28;20757;-70
2022/05/29 09:12:20;;;;;;;2.57;1.30;;;;;15.30;100877.00;;;;5018001;28;20229;-71
2022/05/29 09:15:13;;;;;;;5.00;1.90;;;;;14.90;100869.00;;;;5026526;28;20229;-68
2022/05/29 09:18:04;;;;;;;4.80;1.80;;;;;14.60;100883.00;;;;5016018;28;20596;-71
2022/05/29 09:21:02;;;;;;;2.50;1.50;;;;;14.30;100879.00;;;;5021099;28;20610;-68
2022/05/29 09:23:58;;;;;;;2.03;1.83;;;;;14.00;100878.00;;;;5025929;28;20249;-70
2022/05/29 09:26:45;;;;;;;2.60;1.60;;;;;14.00;100877.00;;;;5022370;28;20233;-71
2022/05/29 09:29:31;;;;;;;6.60;3.00;;;;;14.10;100881.00;;;;5023882;28;20241;-69
2022/05/29 09:32:21;;;;;;;4.77;2.30;;;;;14.30;100872.00;;;;5025588;28;20309;-71
2022/05/29 09:35:13;;;;;;;3.87;1.90;;;;;14.60;100867.00;;;;5026358;28;21069;-68
2022/05/29 09:38:05;;;;;;;6.20;2.03;;;;;14.60;100863.00;;;;5024667;28;20608;-67
2022/05/29 09:40:57;;;;;;;4.10;1.87;;;;;15.00;100867.00;;;;5022413;28;20241;-69
2022/05/29 09:44:08;;;;;;;2.70;1.53;;;;;15.50;100854.00;;;;5018629;28;20249;-68
2022/05/29 09:46:55;;;;;;;4.23;1.80;;;;;15.80;100851.00;;;;5019413;28;20233;-69
2022/05/29 09:49:40;;;;;;;2.10;1.70;;;;;15.60;100843.00;;;;5012011;28;20322;-71
2022/05/29 09:52:30;;;;;;;3.40;1.80;;;;;15.60;100846.00;;;;5023745;28;20277;-69
2022/05/29 09:55:25;;;;;;;3.77;1.87;;;;;15.10;100848.00;;;;5021451;28;20277;-70
2022/05/29 09:58:18;;;;;;;2.90;1.57;;;;;14.90;100852.00;;;;5023308;28;20371;-70
2022/05/29 10:01:06;;;;;;;6.93;2.10;;;;;14.60;100845.00;;;;5022252;28;20742;-68
2022/05/29 10:03:55;;;;;;;5.70;2.00;;;;;14.30;100855.00;;;;5016628;28;20360;-69
2022/05/29 10:06:43;;;;;;;1.83;1.50;;;;;14.30;100854.00;;;;5023451;28;20308;-70
2022/05/29 10:09:31;;;;;;;2.40;1.70;;;;;14.20;100862.00;;;;5020747;28;20249;-70
2022/05/29 10:12:19;;;;;;;8.37;2.00;;;;;14.20;100859.00;;;;5020623;28;20721;-70
2022/05/29 10:15:15;;;;;;;2.97;1.80;;;;;14.40;100858.00;;;;5012929;28;20234;-70
2022/05/29 10:18:04;;;;;;;5.90;1.80;;;;;14.70;100856.00;;;;5020618;28;20243;-70
2022/05/29 10:20:50;;;;;;;2.70;1.93;;;;;15.10;100848.00;;;;5017789;28;20297;-71
2022/05/29 10:23:38;;;;;;;4.73;2.00;;;;;15.00;100851.00;;;;5019344;28;20320;-69
2022/05/29 10:26:35;;;;;;;3.00;1.80;;;;;14.90;100855.00;;;;5021401;28;20241;-69
2022/05/29 10:29:27;;;;;;;1.90;1.70;;;;;14.80;100846.00;;;;5015046;28;20235;-69
2022/05/29 10:32:24;;;;;;;2.87;1.77;;;;;14.70;100858.00;;;;5006700;28;20230;-68
2022/05/29 10:35:22;;;;;;;5.10;2.10;;;;;14.60;100858.00;;;;5015202;28;20305;-68
2022/05/29 10:38:25;;;;;;;3.80;2.00;;;;;14.30;100870.00;;;;5013344;28;20242;-69
2022/05/29 10:41:11;;;;;;;4.53;1.80;;;;;14.10;100871.00;;;;5006873;28;20221;-69
2022/05/29 10:43:58;;;;;;;4.60;1.60;;;;;13.60;100878.00;;;;4995587;28;20221;-69
2022/05/29 10:46:54;;;;;;;1.60;1.33;;;;;13.10;100880.00;;;;5001438;28;20230;-69
2022/05/29 10:49:51;;;;;;;1.47;1.33;;;;;13.00;100873.00;;;;4991595;28;20234;-69
2022/05/29 10:53:11;;;;;;;3.70;1.30;;;;;12.80;100881.00;;;;4995211;28;20703;-71
2022/05/29 10:56:08;;;;;;;2.00;1.20;;;;;12.70;100889.00;;;;5017165;28;20233;-70
2022/05/29 10:59:18;;;;;;;1.40;1.00;;;;;12.70;100876.00;;;;5015035;28;20324;-69
2022/05/29 11:05:38;;;;;;;1.97;1.20;;;;;13.20;100873.00;;;;5007523;28;20353;-69
2022/05/29 11:08:36;;;;;;;1.83;1.10;;;;;13.50;100864.00;;;;5018106;28;20233;-68
2022/05/29 11:11:33;;;;;;;1.80;1.10;;;;;13.90;100861.00;;;;5021681;28;20593;-68
2022/05/29 11:14:44;;;;;;;1.40;1.20;;;;;14.10;100851.00;;;;5023454;28;20301;-69
2022/05/29 11:17:46;;;;;;;1.07;0.90;;;;;14.10;100863.00;;;;5023053;28;20240;-70
2022/05/29 11:20:58;;;;;;;1.57;1.20;;;;;14.30;100845.00;;;;5021246;28;20249;-68
2022/05/29 11:24:03;;;;;;;4.80;1.30;;;;;14.70;100844.00;;;;4999806;28;20221;-69
2022/05/29 11:26:56;;;;;;;2.83;1.20;;;;;14.70;100834.00;;;;5013570;28;20217;-69
2022/05/29 11:30:03;;;;;;;5.83;2.77;;;;;15.10;100829.00;;;;5001024;28;20361;-69
2022/05/29 11:33:16;;;;;;;3.77;2.00;;;;;15.40;100825.00;;;;5016399;28;20742;-73
2022/05/29 11:36:18;;;;;;;5.77;2.30;;;;;15.30;100819.00;;;;5010980;28;20225;-72
2022/05/29 11:39:25;;;;;;;2.73;1.70;;;;;15.70;100816.00;;;;5016340;28;20250;-71
2022/05/29 11:42:17;;;;;;;2.03;1.40;;;;;15.90;100802.00;;;;5009872;28;20308;-71
2022/05/29 11:45:10;;;;;;;2.27;1.50;;;;;16.30;100807.00;;;;4994957;28;20237;-71
2022/05/29 11:51:26;;;;;;;3.53;1.80;;;;;16.50;100806.00;;;;5004099;28;20282;-70
2022/05/29 11:54:20;;;;;;;4.73;1.73;;;;;16.50;100792.00;;;;5010073;28;20231;-70
2022/05/29 11:57:10;;;;;;;6.17;1.60;;;;;16.00;100809.00;;;;5030568;28;20254;-71
2022/05/29 12:00:01;;;;;;;3.90;1.50;;;;;16.00;100804.00;;;;5030221;28;20313;-71
2022/05/29 12:02:56;;;;;;;3.77;1.57;;;;;16.10;100787.00;;;;5032399;28;20340;-71
2022/05/29 12:05:46;;;;;;;2.17;1.63;;;;;16.30;100792.00;;;;5019209;28;20248;-71
2022/05/29 12:08:45;;;;;;;2.53;1.60;;;;;16.60;100770.00;;;;5014746;28;20236;-70
2022/05/29 12:11:41;;;;;;;2.20;1.50;;;;;17.00;100783.00;;;;5038102;28;20240;-69
2022/05/29 12:14:33;;;;;;;2.20;1.30;;;;;17.10;100783.00;;;;5037825;28;20314;-71
2022/05/29 12:17:24;;;;;;;2.87;1.40;;;;;17.30;100775.00;;;;5038066;28;20235;-71
2022/05/29 12:20:17;;;;;;;3.00;1.47;;;;;17.30;100772.00;;;;5032261;28;20261;-70
2022/05/29 12:23:08;;;;;;;3.10;1.40;;;;;17.60;100772.00;;;;5025559;28;20447;-70
2022/05/29 12:26:00;;;;;;;1.83;1.23;;;;;17.30;100771.00;;;;5005963;28;20230;-72
2022/05/29 12:28:52;;;;;;;2.70;1.50;;;;;16.60;100768.00;;;;5036942;28;20318;-71
2022/05/29 12:31:40;;;;;;;3.40;1.33;;;;;16.30;100761.00;;;;5009352;28;20231;-70
2022/05/29 12:34:29;;;;;;;1.67;1.17;;;;;16.20;100766.00;;;;5021803;28;20234;-74
2022/05/29 12:37:49;;;;;;;3.23;1.30;;;;;16.20;100758.00;;;;5026798;28;20236;-70
2022/05/29 12:40:56;;;;;;;2.37;1.30;;;;;16.20;100761.00;;;;5023319;28;20331;-69
2022/05/29 12:44:06;;;;;;;2.80;1.33;;;;;16.50;100768.00;;;;5020017;28;20756;-68
2022/05/29 12:47:16;;;;;;;3.07;1.50;;;;;17.00;100761.00;;;;5012590;28;20232;-70
2022/05/29 12:50:20;;;;;;;1.20;1.10;;;;;17.10;100767.00;;;;5025958;28;20747;-69
2022/05/29 12:53:36;;;;;;;1.97;0.93;;;;;17.00;100767.00;;;;5016505;28;20228;-64
2022/05/29 12:56:39;;;;;;;1.00;1.00;;;;;17.30;100764.00;;;;5021172;28;20355;-68
2022/05/29 12:59:53;;;;;;;2.17;1.17;;;;;17.40;100758.00;;;;5024393;28;20638;-69
2022/05/29 13:03:06;;;;;;;2.97;1.13;;;;;17.60;100763.00;;;;5001680;28;20369;-68
2022/05/29 13:06:11;;;;;;;2.87;1.07;;;;;18.10;100757.00;;;;5019403;28;20243;-69
2022/05/29 13:09:17;;;;;;;5.97;1.23;;;;;18.20;100756.00;;;;4998045;28;20247;-68
2022/05/29 13:12:07;;;;;;;5.63;1.33;;;;;18.60;100749.00;;;;5004299;28;20229;-68
2022/05/29 13:15:05;;;;;;;2.03;0.90;;;;;18.80;100754.00;;;;5022177;28;20237;-70
2022/05/29 13:18:01;;;;;;;1.37;1.00;;;;;18.50;100746.00;;;;5006896;28;20254;-67
2022/05/29 13:21:11;;;;;;;4.60;2.67;;;;;18.40;100741.00;;;;5019010;28;21007;-67
2022/05/29 13:23:58;;;;;;;4.87;1.30;;;;;18.90;100755.00;;;;5026655;28;20229;-68
2022/05/29 13:26:44;;;;;;;1.93;1.07;;;;;18.90;100744.00;;;;5023770;28;20300;-68
2022/05/29 13:29:40;;;;;;;4.07;1.00;;;;;18.20;100748.00;;;;5006000;28;20349;-68
2022/05/29 13:32:29;;;;;;;1.97;0.97;;;;;17.60;100750.00;;;;5024187;28;20225;-69
2022/05/29 13:35:45;;;;;;;2.47;1.20;;;;;17.00;100742.00;;;;5006344;28;20292;-69
2022/05/29 13:38:55;;;;;;;3.17;1.13;;;;;16.60;100759.00;;;;4963435;28;20411;-68
2022/05/29 13:41:58;;;;;;;2.13;1.40;;;;;16.50;100733.00;;;;5017136;28;20245;-70
2022/05/29 13:44:44;;;;;;;3.63;0.90;;;;;16.40;100755.00;;;;5016286;28;20273;-67
2022/05/29 13:47:46;;;;;;;2.43;1.13;;;;;16.60;100751.00;;;;5011298;28;20683;-68
2022/05/29 13:50:48;;;;;;;2.73;0.93;;;;;16.50;100762.00;;;;4990624;28;20401;-70
2022/05/29 13:53:49;;;;;;;3.03;1.10;;;;;16.50;100761.00;;;;5002030;28;20233;-69
2022/05/29 13:57:09;;;;;;;1.97;0.90;;;;;16.80;100749.00;;;;4993066;28;20237;-67
2022/05/29 14:06:17;;;;;;;3.77;1.20;;;;;17.10;100742.00;;;;4996772;28;20217;-68
2022/05/29 14:09:07;;;;;;;2.97;1.00;;;;;17.30;100746.00;;;;5000178;28;20283;-69
2022/05/29 14:11:55;;;;;;;3.43;1.10;;;;;17.50;100734.00;;;;5005448;28;20403;-69
2022/05/29 14:14:49;;;;;;;1.17;1.00;;;;;18.20;100741.00;;;;5005044;28;20239;-68
2022/05/29 14:17:40;;;;;;;2.10;1.00;;;;;19.00;100731.00;;;;5003933;28;20229;-70
2022/05/29 14:20:35;;;;;;;2.27;1.10;;;;;19.50;100738.00;;;;5004602;28;20285;-70
2022/05/29 14:23:41;;;;;;;2.90;1.30;;;;;19.30;100735.00;;;;5021412;28;20706;-70
2022/05/29 14:26:49;;;;;;;5.03;1.40;;;;;18.70;100738.00;;;;5003490;28;20584;-70
2022/05/29 14:30:02;;;;;;;1.87;1.10;;;;;18.40;100735.00;;;;5000419;28;20231;-68
2022/05/29 14:33:20;;;;;;;1.67;1.10;;;;;18.70;100738.00;;;;4999834;28;20225;-71
2022/05/29 14:36:21;;;;;;;2.13;1.17;;;;;17.90;100725.00;;;;5024217;28;20248;-71
2022/05/29 14:39:19;;;;;;;2.03;1.20;;;;;17.50;100743.00;;;;5022457;28;20316;-70
2022/05/29 14:42:16;;;;;;;3.93;1.00;;;;;17.30;100740.00;;;;5018393;28;20253;-68
2022/05/29 14:45:08;;;;;;;2.87;0.90;;;;;17.10;100740.00;;;;5019604;28;20272;-68
2022/05/29 14:47:57;;;;;;;2.87;1.13;;;;;16.90;100736.00;;;;5021807;28;20249;-68
2022/05/29 14:50:48;;;;;;;2.20;1.13;;;;;16.70;100741.00;;;;5024281;28;20905;-68
2022/05/29 14:53:41;;;;;;;5.67;1.40;;;;;16.60;100746.00;;;;5021997;28;20764;-67